ARG7407 LEMD-SAEZ
Flight info
| Callsign | ARG7407 |
|---|---|
| Flight time | N/A |
| Altitude | FL130 |
| Route | CCS6L CCS N975 ELVAR UN975 SNT UN741 NELSO N741 EDUMO UN741 PAPIX PAPI7A |
| Aircraft | B789/H-SDE1E2E3FGHIJ2J3J4J5M1RWXY/LB1D1 |
Departure
| Time | N/A |
|---|---|
| Airport | Adolfo Suárez Madrid–Barajas Airport (LEMD) |
Arrival
| Time | 2026-05-05 15:12 |
|---|---|
| Airport | Ezeiza International Airport - Ministro Pistarini (SAEZ) |
| Time | Latitude | Longitude | Altitude | Speed | Heading |
|---|---|---|---|---|---|
| 2026-05-05 11:26 | -14.02373 | -43.31831 | 37433 ft | 457 kts | 209° |
| 2026-05-05 11:26 | -14.05228 | -43.33258 | 37718 ft | 456 kts | 209° |
| 2026-05-05 11:27 | -14.08074 | -43.34684 | 37960 ft | 456 kts | 209° |
| 2026-05-05 11:27 | -14.10921 | -43.36123 | 38124 ft | 457 kts | 210° |
| 2026-05-05 11:27 | -14.13780 | -43.37568 | 38179 ft | 461 kts | 209° |
| 2026-05-05 11:28 | -14.19542 | -43.40466 | 38172 ft | 460 kts | 209° |
| 2026-05-05 11:28 | -14.25257 | -43.43351 | 38172 ft | 458 kts | 209° |
| 2026-05-05 11:29 | -14.30966 | -43.46231 | 38177 ft | 458 kts | 209° |
| 2026-05-05 11:29 | -14.36675 | -43.49113 | 38181 ft | 457 kts | 209° |
| 2026-05-05 11:30 | -14.42376 | -43.51994 | 38180 ft | 457 kts | 209° |
| 2026-05-05 11:30 | -14.48080 | -43.54876 | 38183 ft | 457 kts | 209° |
| 2026-05-05 11:31 | -14.53779 | -43.57758 | 38183 ft | 457 kts | 209° |
| 2026-05-05 11:31 | -14.59474 | -43.60640 | 38190 ft | 457 kts | 209° |
| 2026-05-05 11:32 | -14.65168 | -43.63524 | 38195 ft | 457 kts | 209° |
| 2026-05-05 11:32 | -14.70857 | -43.66405 | 38190 ft | 456 kts | 209° |
| 2026-05-05 11:33 | -14.76547 | -43.69290 | 38196 ft | 456 kts | 209° |
| 2026-05-05 11:33 | -14.82229 | -43.72172 | 38200 ft | 456 kts | 209° |
| 2026-05-05 11:34 | -14.87910 | -43.75055 | 38198 ft | 455 kts | 209° |
| 2026-05-05 11:34 | -14.93582 | -43.77935 | 38204 ft | 455 kts | 209° |
| 2026-05-05 11:35 | -14.99253 | -43.80816 | 38211 ft | 455 kts | 209° |
| 2026-05-05 11:35 | -15.04921 | -43.83684 | 38298 ft | 454 kts | 208° |
| 2026-05-05 11:35 | -15.07741 | -43.85088 | 38714 ft | 449 kts | 208° |
| 2026-05-05 11:36 | -15.10544 | -43.86492 | 38983 ft | 448 kts | 209° |
| 2026-05-05 11:36 | -15.13339 | -43.87902 | 39201 ft | 447 kts | 209° |
| 2026-05-05 11:36 | -15.16126 | -43.89305 | 39422 ft | 446 kts | 208° |
| 2026-05-05 11:36 | -15.18911 | -43.90702 | 39639 ft | 445 kts | 208° |
| 2026-05-05 11:37 | -15.21688 | -43.92097 | 39854 ft | 444 kts | 209° |
| 2026-05-05 11:37 | -15.24463 | -43.93493 | 40014 ft | 445 kts | 209° |
| 2026-05-05 11:37 | -15.27242 | -43.94893 | 40142 ft | 445 kts | 209° |
| 2026-05-05 11:38 | -15.32832 | -43.97706 | 40195 ft | 449 kts | 208° |
| 2026-05-05 11:38 | -15.38413 | -44.00515 | 40197 ft | 445 kts | 209° |
| 2026-05-05 11:39 | -15.43966 | -44.03314 | 40196 ft | 444 kts | 208° |
| 2026-05-05 11:39 | -15.49511 | -44.06105 | 40200 ft | 444 kts | 208° |
| 2026-05-05 11:40 | -15.55085 | -44.08847 | 40202 ft | 443 kts | 208° |
| 2026-05-05 11:40 | -15.60631 | -44.11605 | 40207 ft | 443 kts | 208° |
| 2026-05-05 11:41 | -15.66173 | -44.14348 | 40204 ft | 442 kts | 208° |
| 2026-05-05 11:41 | -15.71702 | -44.17091 | 40208 ft | 441 kts | 208° |
| 2026-05-05 11:42 | -15.77217 | -44.19827 | 40213 ft | 440 kts | 208° |
| 2026-05-05 11:42 | -15.82735 | -44.22566 | 40210 ft | 440 kts | 208° |
| 2026-05-05 11:43 | -15.88248 | -44.25305 | 40216 ft | 440 kts | 208° |
| 2026-05-05 11:43 | -15.93754 | -44.28042 | 40220 ft | 439 kts | 208° |
| 2026-05-05 11:44 | -15.99252 | -44.30777 | 40220 ft | 439 kts | 208° |
| 2026-05-05 11:44 | -16.04748 | -44.33512 | 40223 ft | 438 kts | 208° |
| 2026-05-05 11:45 | -16.10233 | -44.36244 | 40226 ft | 438 kts | 208° |
| 2026-05-05 11:45 | -16.15711 | -44.38973 | 40220 ft | 438 kts | 208° |
| 2026-05-05 11:46 | -16.21185 | -44.41703 | 40222 ft | 437 kts | 208° |
| 2026-05-05 11:46 | -16.26658 | -44.44433 | 40223 ft | 437 kts | 208° |
| 2026-05-05 11:47 | -16.32125 | -44.47163 | 40222 ft | 437 kts | 208° |
| 2026-05-05 11:47 | -16.37593 | -44.49894 | 40222 ft | 437 kts | 208° |
| 2026-05-05 11:48 | -16.45786 | -44.53990 | 40222 ft | 436 kts | 208° |
| 2026-05-05 11:48 | -16.51243 | -44.56720 | 40220 ft | 436 kts | 208° |
| 2026-05-05 11:49 | -16.56702 | -44.59453 | 40223 ft | 436 kts | 208° |
| 2026-05-05 11:49 | -16.62152 | -44.62184 | 40219 ft | 436 kts | 208° |
| 2026-05-05 11:50 | -16.67602 | -44.64915 | 40219 ft | 436 kts | 208° |
| 2026-05-05 11:50 | -16.73056 | -44.67651 | 40221 ft | 435 kts | 208° |
| 2026-05-05 11:51 | -16.78491 | -44.70379 | 40209 ft | 433 kts | 208° |
| 2026-05-05 11:51 | -16.83912 | -44.73102 | 40216 ft | 434 kts | 208° |
| 2026-05-05 11:52 | -16.89301 | -44.75859 | 40212 ft | 432 kts | 210° |
| 2026-05-05 11:52 | -16.94668 | -44.78676 | 40216 ft | 433 kts | 209° |
| 2026-05-05 11:53 | -17.00055 | -44.81461 | 40221 ft | 433 kts | 209° |
| 2026-05-05 11:53 | -17.05434 | -44.84268 | 40225 ft | 433 kts | 209° |
| 2026-05-05 11:54 | -17.10815 | -44.87066 | 40229 ft | 433 kts | 209° |
| 2026-05-05 11:54 | -17.16186 | -44.89866 | 40229 ft | 432 kts | 209° |
| 2026-05-05 11:55 | -17.21562 | -44.92667 | 40229 ft | 432 kts | 209° |
| 2026-05-05 11:55 | -17.26930 | -44.95468 | 40229 ft | 432 kts | 209° |
| 2026-05-05 11:56 | -17.32294 | -44.98268 | 40235 ft | 431 kts | 209° |
| 2026-05-05 11:56 | -17.37652 | -45.01067 | 40231 ft | 431 kts | 209° |
| 2026-05-05 11:57 | -17.42970 | -45.03938 | 40228 ft | 430 kts | 210° |
| 2026-05-05 11:57 | -17.48267 | -45.06834 | 40235 ft | 430 kts | 210° |
| 2026-05-05 11:58 | -17.53551 | -45.09757 | 40231 ft | 430 kts | 210° |
| 2026-05-05 11:58 | -17.58841 | -45.12670 | 40232 ft | 430 kts | 210° |
| 2026-05-05 11:59 | -17.64114 | -45.15583 | 40236 ft | 429 kts | 210° |
| 2026-05-05 11:59 | -17.69423 | -45.18413 | 40237 ft | 429 kts | 209° |
| 2026-05-05 12:00 | -17.74761 | -45.21194 | 40240 ft | 429 kts | 209° |
| 2026-05-05 12:00 | -17.80101 | -45.23958 | 40239 ft | 428 kts | 209° |
| 2026-05-05 12:01 | -17.85432 | -45.26727 | 40241 ft | 428 kts | 209° |
| 2026-05-05 12:01 | -17.90774 | -45.29501 | 40238 ft | 429 kts | 209° |
| 2026-05-05 12:02 | -17.96115 | -45.32277 | 40239 ft | 430 kts | 209° |
| 2026-05-05 12:02 | -18.01463 | -45.35058 | 40229 ft | 429 kts | 209° |
| 2026-05-05 12:03 | -18.06794 | -45.37833 | 40239 ft | 428 kts | 209° |
| 2026-05-05 12:03 | -18.12123 | -45.40606 | 40242 ft | 428 kts | 209° |
| 2026-05-05 12:04 | -18.17457 | -45.43384 | 40243 ft | 429 kts | 209° |
| 2026-05-05 12:04 | -18.22786 | -45.46162 | 40243 ft | 429 kts | 209° |
| 2026-05-05 12:05 | -18.28116 | -45.48941 | 40243 ft | 429 kts | 209° |
| 2026-05-05 12:05 | -18.33455 | -45.51728 | 40246 ft | 429 kts | 209° |
| 2026-05-05 12:06 | -18.38783 | -45.54510 | 40245 ft | 428 kts | 209° |
| 2026-05-05 12:06 | -18.44105 | -45.57300 | 40247 ft | 428 kts | 211° |
| 2026-05-05 12:07 | -18.49341 | -45.60258 | 40247 ft | 428 kts | 211° |
| 2026-05-05 12:07 | -18.54583 | -45.63207 | 40251 ft | 428 kts | 211° |
| 2026-05-05 12:08 | -18.59816 | -45.66164 | 40247 ft | 427 kts | 211° |
| 2026-05-05 12:08 | -18.65045 | -45.69114 | 40249 ft | 427 kts | 211° |
| 2026-05-05 12:09 | -18.70274 | -45.72069 | 40253 ft | 427 kts | 211° |
| 2026-05-05 12:09 | -18.75501 | -45.75024 | 40255 ft | 427 kts | 211° |
| 2026-05-05 12:10 | -18.80727 | -45.77981 | 40257 ft | 427 kts | 211° |
| 2026-05-05 12:10 | -18.85950 | -45.80941 | 40257 ft | 427 kts | 211° |
| 2026-05-05 12:11 | -18.91169 | -45.83904 | 40260 ft | 427 kts | 211° |
| 2026-05-05 12:11 | -18.96388 | -45.86868 | 40264 ft | 427 kts | 211° |
| 2026-05-05 12:12 | -19.01602 | -45.89832 | 40258 ft | 426 kts | 211° |
| 2026-05-05 12:12 | -19.06802 | -45.92790 | 40263 ft | 425 kts | 211° |
| 2026-05-05 12:13 | -19.11998 | -45.95748 | 40272 ft | 425 kts | 211° |
| 2026-05-05 12:13 | -19.17188 | -45.98704 | 40267 ft | 425 kts | 211° |
| 2026-05-05 12:14 | -19.22376 | -46.01658 | 40270 ft | 424 kts | 211° |
| 2026-05-05 12:14 | -19.27561 | -46.04613 | 40264 ft | 424 kts | 211° |
| 2026-05-05 12:15 | -19.32744 | -46.07569 | 40273 ft | 424 kts | 211° |
| 2026-05-05 12:15 | -19.37922 | -46.10524 | 40276 ft | 424 kts | 211° |
| 2026-05-05 12:16 | -19.43103 | -46.13484 | 40274 ft | 423 kts | 211° |
| 2026-05-05 12:16 | -19.48276 | -46.16441 | 40273 ft | 424 kts | 211° |
| 2026-05-05 12:17 | -19.53458 | -46.19405 | 40263 ft | 424 kts | 211° |
| 2026-05-05 12:17 | -19.58635 | -46.22368 | 40264 ft | 424 kts | 211° |
| 2026-05-05 12:18 | -19.63808 | -46.25332 | 40269 ft | 423 kts | 211° |
| 2026-05-05 12:18 | -19.68979 | -46.28296 | 40273 ft | 424 kts | 211° |
| 2026-05-05 12:19 | -19.74154 | -46.31265 | 40272 ft | 423 kts | 211° |
| 2026-05-05 12:19 | -19.79321 | -46.34232 | 40276 ft | 423 kts | 211° |
| 2026-05-05 12:20 | -19.84485 | -46.37201 | 40274 ft | 423 kts | 211° |
| 2026-05-05 12:20 | -19.89651 | -46.40172 | 40279 ft | 423 kts | 211° |
| 2026-05-05 12:21 | -19.94822 | -46.43149 | 40278 ft | 424 kts | 211° |
| 2026-05-05 12:21 | -19.99991 | -46.46127 | 40276 ft | 423 kts | 211° |
| 2026-05-05 12:22 | -20.05148 | -46.49100 | 40279 ft | 423 kts | 211° |
| 2026-05-05 12:22 | -20.10310 | -46.52078 | 40278 ft | 423 kts | 211° |
| 2026-05-05 12:23 | -20.15466 | -46.55055 | 40278 ft | 423 kts | 211° |
| 2026-05-05 12:23 | -20.20618 | -46.58032 | 40279 ft | 422 kts | 211° |
| 2026-05-05 12:24 | -20.25776 | -46.61015 | 40279 ft | 423 kts | 211° |
| 2026-05-05 12:24 | -20.30937 | -46.64001 | 40274 ft | 422 kts | 211° |
| 2026-05-05 12:25 | -20.36074 | -46.66978 | 40259 ft | 422 kts | 211° |
| 2026-05-05 12:25 | -20.41233 | -46.69967 | 40264 ft | 424 kts | 211° |
| 2026-05-05 12:26 | -20.46399 | -46.72963 | 40266 ft | 423 kts | 211° |
| 2026-05-05 12:26 | -20.51560 | -46.75959 | 40259 ft | 423 kts | 211° |
| 2026-05-05 12:27 | -20.56718 | -46.78956 | 40264 ft | 423 kts | 211° |
| 2026-05-05 12:27 | -20.61884 | -46.81959 | 40263 ft | 424 kts | 211° |
| 2026-05-05 12:28 | -20.67050 | -46.84964 | 40263 ft | 424 kts | 211° |
| 2026-05-05 12:28 | -20.72211 | -46.87970 | 40257 ft | 423 kts | 211° |
| 2026-05-05 12:29 | -20.77371 | -46.90977 | 40258 ft | 423 kts | 211° |
| 2026-05-05 12:29 | -20.82532 | -46.93987 | 40259 ft | 423 kts | 211° |
| 2026-05-05 12:30 | -20.87685 | -46.96995 | 40259 ft | 423 kts | 212° |
| 2026-05-05 12:30 | -20.92835 | -47.00004 | 40259 ft | 423 kts | 212° |
| 2026-05-05 12:31 | -20.97989 | -47.03018 | 40249 ft | 423 kts | 212° |
| 2026-05-05 12:31 | -21.03143 | -47.06033 | 40252 ft | 423 kts | 212° |
| 2026-05-05 12:32 | -21.08298 | -47.09052 | 40248 ft | 423 kts | 212° |
| 2026-05-05 12:32 | -21.13453 | -47.12073 | 40249 ft | 423 kts | 212° |
| 2026-05-05 12:33 | -21.18600 | -47.15092 | 40245 ft | 423 kts | 212° |
| 2026-05-05 12:33 | -21.23753 | -47.18117 | 40244 ft | 423 kts | 212° |
| 2026-05-05 12:34 | -21.28908 | -47.21146 | 40237 ft | 424 kts | 212° |
| 2026-05-05 12:34 | -21.34068 | -47.24176 | 40241 ft | 423 kts | 210° |
| 2026-05-05 12:35 | -21.39616 | -47.26357 | 40240 ft | 430 kts | 200° |
| 2026-05-05 12:35 | -21.45378 | -47.28017 | 40238 ft | 429 kts | 200° |
| 2026-05-05 12:36 | -21.51134 | -47.29667 | 40236 ft | 429 kts | 200° |
| 2026-05-05 12:36 | -21.56886 | -47.31322 | 40237 ft | 429 kts | 200° |
| 2026-05-05 12:37 | -21.62636 | -47.32975 | 40237 ft | 429 kts | 200° |
| 2026-05-05 12:37 | -21.68382 | -47.34631 | 40242 ft | 428 kts | 200° |
| 2026-05-05 12:38 | -21.74117 | -47.36282 | 40252 ft | 427 kts | 200° |
| 2026-05-05 12:38 | -21.79854 | -47.37938 | 40263 ft | 428 kts | 200° |
| 2026-05-05 12:39 | -21.85590 | -47.39593 | 40260 ft | 428 kts | 200° |
| 2026-05-05 12:39 | -21.91337 | -47.41253 | 40275 ft | 429 kts | 200° |
| 2026-05-05 12:40 | -21.97092 | -47.42916 | 40276 ft | 429 kts | 200° |
| 2026-05-05 12:40 | -22.02836 | -47.44579 | 40272 ft | 429 kts | 200° |
| 2026-05-05 12:41 | -22.08591 | -47.46245 | 40267 ft | 429 kts | 200° |
| 2026-05-05 12:41 | -22.14343 | -47.47912 | 40259 ft | 429 kts | 200° |
| 2026-05-05 12:42 | -22.20090 | -47.49579 | 40253 ft | 429 kts | 200° |
| 2026-05-05 12:42 | -22.25837 | -47.51248 | 40248 ft | 429 kts | 200° |
| 2026-05-05 12:43 | -22.31584 | -47.52918 | 40240 ft | 429 kts | 200° |
| 2026-05-05 12:43 | -22.37344 | -47.54593 | 40241 ft | 430 kts | 200° |
| 2026-05-05 12:44 | -22.42871 | -47.56834 | 40248 ft | 423 kts | 212° |
| 2026-05-05 12:44 | -22.47615 | -47.60504 | 40238 ft | 420 kts | 222° |
| 2026-05-05 12:45 | -22.52066 | -47.64598 | 40233 ft | 421 kts | 222° |
| 2026-05-05 12:45 | -22.56504 | -47.68715 | 40237 ft | 421 kts | 222° |
| 2026-05-05 12:46 | -22.60949 | -47.72827 | 40234 ft | 421 kts | 222° |
| 2026-05-05 12:46 | -22.65389 | -47.76945 | 40232 ft | 421 kts | 222° |
| 2026-05-05 12:47 | -22.69828 | -47.81063 | 40231 ft | 421 kts | 222° |
| 2026-05-05 12:47 | -22.74263 | -47.85182 | 40232 ft | 421 kts | 222° |
| 2026-05-05 12:48 | -22.78702 | -47.89309 | 40231 ft | 422 kts | 222° |
| 2026-05-05 12:48 | -22.83138 | -47.93440 | 40231 ft | 421 kts | 222° |
| 2026-05-05 12:49 | -22.87572 | -47.97576 | 40234 ft | 421 kts | 222° |
| 2026-05-05 12:49 | -22.92003 | -48.01711 | 40233 ft | 421 kts | 222° |
| 2026-05-05 12:50 | -22.96432 | -48.05850 | 40236 ft | 421 kts | 222° |
| 2026-05-05 12:50 | -23.00813 | -48.10042 | 40235 ft | 421 kts | 223° |
| 2026-05-05 12:51 | -23.05174 | -48.14267 | 40238 ft | 421 kts | 223° |
| 2026-05-05 12:51 | -23.09553 | -48.18477 | 40237 ft | 421 kts | 223° |
| 2026-05-05 12:52 | -23.13918 | -48.22703 | 40242 ft | 421 kts | 223° |
| 2026-05-05 12:52 | -23.18274 | -48.26916 | 40221 ft | 420 kts | 223° |
| 2026-05-05 12:53 | -23.22619 | -48.31127 | 40226 ft | 418 kts | 223° |
| 2026-05-05 12:53 | -23.26960 | -48.35331 | 40227 ft | 420 kts | 223° |
| 2026-05-05 12:54 | -23.33551 | -48.41599 | 40257 ft | 421 kts | 217° |
| 2026-05-05 12:55 | -23.38442 | -48.45127 | 40231 ft | 423 kts | 216° |
| 2026-05-05 12:55 | -23.43355 | -48.48641 | 40234 ft | 423 kts | 216° |
| 2026-05-05 12:56 | -23.48271 | -48.52150 | 40233 ft | 424 kts | 216° |
| 2026-05-05 12:56 | -23.53187 | -48.55669 | 40246 ft | 423 kts | 216° |
| 2026-05-05 12:57 | -23.58099 | -48.59184 | 40237 ft | 423 kts | 216° |
| 2026-05-05 12:57 | -23.63009 | -48.62704 | 40240 ft | 423 kts | 216° |
| 2026-05-05 12:58 | -23.67918 | -48.66224 | 40245 ft | 423 kts | 216° |
| 2026-05-05 12:58 | -23.72819 | -48.69742 | 40245 ft | 422 kts | 216° |
| 2026-05-05 12:59 | -23.77713 | -48.73260 | 40246 ft | 422 kts | 216° |
| 2026-05-05 12:59 | -23.82610 | -48.76782 | 40250 ft | 422 kts | 216° |
| 2026-05-05 13:00 | -23.89956 | -48.82071 | 40243 ft | 423 kts | 216° |
| 2026-05-05 13:01 | -23.99754 | -48.89137 | 40247 ft | 423 kts | 216° |
| 2026-05-05 13:01 | -24.04649 | -48.92673 | 40246 ft | 423 kts | 216° |
| 2026-05-05 13:02 | -24.09547 | -48.96213 | 40244 ft | 423 kts | 216° |
| 2026-05-05 13:02 | -24.14453 | -48.99763 | 40249 ft | 423 kts | 216° |
| 2026-05-05 13:03 | -24.19348 | -49.03309 | 40243 ft | 423 kts | 216° |
| 2026-05-05 13:03 | -24.24245 | -49.06858 | 40254 ft | 423 kts | 216° |
| 2026-05-05 13:04 | -24.29139 | -49.10409 | 40253 ft | 424 kts | 216° |
| 2026-05-05 13:04 | -24.34045 | -49.13972 | 40253 ft | 423 kts | 216° |
| 2026-05-05 13:05 | -24.38941 | -49.17532 | 40254 ft | 423 kts | 216° |
| 2026-05-05 13:05 | -24.43840 | -49.21096 | 40259 ft | 424 kts | 216° |
| 2026-05-05 13:06 | -24.48739 | -49.24664 | 40257 ft | 424 kts | 216° |
| 2026-05-05 13:06 | -24.53642 | -49.28239 | 40261 ft | 424 kts | 216° |
| 2026-05-05 13:07 | -24.58549 | -49.31820 | 40258 ft | 425 kts | 216° |
| 2026-05-05 13:07 | -24.63460 | -49.35406 | 40259 ft | 425 kts | 216° |
| 2026-05-05 13:08 | -24.68365 | -49.39011 | 40255 ft | 424 kts | 218° |
| 2026-05-05 13:08 | -24.73159 | -49.42775 | 40261 ft | 425 kts | 217° |
| 2026-05-05 13:09 | -24.77968 | -49.46540 | 40255 ft | 425 kts | 218° |
| 2026-05-05 13:09 | -24.82771 | -49.50313 | 40258 ft | 425 kts | 218° |
| 2026-05-05 13:10 | -24.87567 | -49.54079 | 40262 ft | 424 kts | 218° |
| 2026-05-05 13:10 | -24.92368 | -49.57856 | 40266 ft | 425 kts | 218° |
| 2026-05-05 13:11 | -24.97172 | -49.61637 | 40265 ft | 425 kts | 218° |
| 2026-05-05 13:11 | -25.01966 | -49.65415 | 40265 ft | 425 kts | 218° |
| 2026-05-05 13:12 | -25.06758 | -49.69204 | 40266 ft | 425 kts | 218° |
| 2026-05-05 13:12 | -25.11539 | -49.73012 | 40269 ft | 425 kts | 218° |
| 2026-05-05 13:13 | -25.16318 | -49.76808 | 40268 ft | 424 kts | 218° |
| 2026-05-05 13:13 | -25.21098 | -49.80616 | 40271 ft | 424 kts | 218° |
| 2026-05-05 13:14 | -25.25872 | -49.84420 | 40268 ft | 424 kts | 218° |
| 2026-05-05 13:14 | -25.30784 | -49.88022 | 40268 ft | 426 kts | 215° |
| 2026-05-05 13:15 | -25.35792 | -49.91500 | 40273 ft | 426 kts | 215° |
| 2026-05-05 13:15 | -25.40810 | -49.94959 | 40273 ft | 426 kts | 215° |
| 2026-05-05 13:16 | -25.45824 | -49.98432 | 40275 ft | 426 kts | 215° |
| 2026-05-05 13:16 | -25.50835 | -50.01901 | 40276 ft | 425 kts | 215° |
| 2026-05-05 13:17 | -25.55833 | -50.05366 | 40273 ft | 425 kts | 215° |
| 2026-05-05 13:17 | -25.60952 | -50.08645 | 40272 ft | 426 kts | 213° |
| 2026-05-05 13:18 | -25.66086 | -50.11895 | 40279 ft | 426 kts | 213° |
| 2026-05-05 13:18 | -25.71221 | -50.15142 | 40282 ft | 426 kts | 213° |
| 2026-05-05 13:19 | -25.76353 | -50.18393 | 40281 ft | 425 kts | 213° |
| 2026-05-05 13:19 | -25.81485 | -50.21647 | 40277 ft | 426 kts | 213° |
| 2026-05-05 13:20 | -25.86608 | -50.24919 | 40275 ft | 426 kts | 214° |
| 2026-05-05 13:20 | -25.91697 | -50.28268 | 40283 ft | 427 kts | 213° |
| 2026-05-05 13:21 | -25.96817 | -50.31592 | 40272 ft | 427 kts | 213° |
| 2026-05-05 13:21 | -26.01919 | -50.34932 | 40275 ft | 427 kts | 214° |
| 2026-05-05 13:22 | -26.07025 | -50.38266 | 40283 ft | 427 kts | 214° |
| 2026-05-05 13:22 | -26.12118 | -50.41599 | 40277 ft | 424 kts | 214° |
| 2026-05-05 13:23 | -26.17186 | -50.44920 | 40276 ft | 424 kts | 214° |
| 2026-05-05 13:23 | -26.22260 | -50.48246 | 40280 ft | 424 kts | 214° |
| 2026-05-05 13:24 | -26.27340 | -50.51580 | 40283 ft | 424 kts | 214° |
| 2026-05-05 13:24 | -26.32420 | -50.54918 | 40279 ft | 425 kts | 214° |
| 2026-05-05 13:25 | -26.37502 | -50.58261 | 40276 ft | 425 kts | 214° |
| 2026-05-05 13:25 | -26.42583 | -50.61606 | 40268 ft | 424 kts | 214° |
| 2026-05-05 13:26 | -26.47662 | -50.64954 | 40278 ft | 425 kts | 214° |
| 2026-05-05 13:26 | -26.52749 | -50.68310 | 40269 ft | 426 kts | 214° |
| 2026-05-05 13:27 | -26.57837 | -50.71670 | 40272 ft | 425 kts | 214° |
| 2026-05-05 13:27 | -26.62919 | -50.75029 | 40265 ft | 425 kts | 214° |
| 2026-05-05 13:28 | -26.67998 | -50.78392 | 40268 ft | 426 kts | 214° |
| 2026-05-05 13:28 | -26.73087 | -50.81763 | 40265 ft | 426 kts | 214° |
| 2026-05-05 13:29 | -26.78170 | -50.85136 | 40265 ft | 426 kts | 214° |
| 2026-05-05 13:29 | -26.83254 | -50.88514 | 40262 ft | 425 kts | 214° |
| 2026-05-05 13:30 | -26.88331 | -50.91890 | 40263 ft | 426 kts | 214° |
| 2026-05-05 13:30 | -26.93413 | -50.95274 | 40263 ft | 426 kts | 214° |
| 2026-05-05 13:31 | -26.98490 | -50.98658 | 40262 ft | 425 kts | 214° |
| 2026-05-05 13:31 | -27.03565 | -51.02045 | 40259 ft | 425 kts | 214° |
| 2026-05-05 13:32 | -27.08639 | -51.05434 | 40254 ft | 426 kts | 214° |
| 2026-05-05 13:32 | -27.13714 | -51.08827 | 40256 ft | 425 kts | 214° |
| 2026-05-05 13:33 | -27.18786 | -51.12222 | 40248 ft | 425 kts | 214° |
| 2026-05-05 13:33 | -27.23866 | -51.15627 | 40251 ft | 426 kts | 214° |
| 2026-05-05 13:34 | -27.28945 | -51.19033 | 40253 ft | 426 kts | 214° |
| 2026-05-05 13:34 | -27.34012 | -51.22466 | 40247 ft | 425 kts | 218° |
| 2026-05-05 13:35 | -27.38860 | -51.26239 | 40247 ft | 425 kts | 218° |
| 2026-05-05 13:35 | -27.43722 | -51.30004 | 40247 ft | 426 kts | 218° |
| 2026-05-05 13:36 | -27.48580 | -51.33791 | 40247 ft | 425 kts | 218° |
| 2026-05-05 13:36 | -27.53431 | -51.37562 | 40241 ft | 424 kts | 218° |
| 2026-05-05 13:37 | -27.58278 | -51.41343 | 40244 ft | 424 kts | 218° |
| 2026-05-05 13:37 | -27.63117 | -51.45117 | 40227 ft | 423 kts | 218° |
| 2026-05-05 13:38 | -27.67951 | -51.48894 | 40233 ft | 423 kts | 218° |
| 2026-05-05 13:38 | -27.72784 | -51.52672 | 40233 ft | 424 kts | 218° |
| 2026-05-05 13:39 | -27.77617 | -51.56456 | 40234 ft | 424 kts | 218° |
| 2026-05-05 13:39 | -27.82453 | -51.60246 | 40234 ft | 424 kts | 218° |
| 2026-05-05 13:40 | -27.87284 | -51.64036 | 40233 ft | 423 kts | 218° |
| 2026-05-05 13:40 | -27.92115 | -51.67831 | 40233 ft | 423 kts | 218° |
| 2026-05-05 13:41 | -27.96936 | -51.71622 | 40229 ft | 423 kts | 218° |
| 2026-05-05 13:41 | -28.01763 | -51.75421 | 40233 ft | 424 kts | 218° |
| 2026-05-05 13:42 | -28.06593 | -51.79228 | 40227 ft | 424 kts | 218° |
| 2026-05-05 13:42 | -28.11425 | -51.83039 | 40227 ft | 424 kts | 218° |
| 2026-05-05 13:43 | -28.16260 | -51.86859 | 40226 ft | 425 kts | 218° |
| 2026-05-05 13:43 | -28.21108 | -51.90692 | 40221 ft | 425 kts | 218° |
| 2026-05-05 13:44 | -28.25944 | -51.94520 | 40226 ft | 425 kts | 218° |
| 2026-05-05 13:44 | -28.30774 | -51.98348 | 40218 ft | 425 kts | 218° |
| 2026-05-05 13:45 | -28.35607 | -52.02182 | 40223 ft | 425 kts | 219° |
| 2026-05-05 13:45 | -28.40444 | -52.06024 | 40221 ft | 425 kts | 219° |
| 2026-05-05 13:46 | -28.45277 | -52.09867 | 40219 ft | 425 kts | 219° |
| 2026-05-05 13:46 | -28.50104 | -52.13710 | 40215 ft | 424 kts | 219° |
| 2026-05-05 13:47 | -28.54924 | -52.17551 | 40206 ft | 424 kts | 219° |
| 2026-05-05 13:47 | -28.59742 | -52.21396 | 40197 ft | 424 kts | 219° |
| 2026-05-05 13:48 | -28.64558 | -52.25243 | 40187 ft | 424 kts | 219° |
| 2026-05-05 13:48 | -28.69374 | -52.29093 | 40192 ft | 424 kts | 219° |
| 2026-05-05 13:49 | -28.74182 | -52.32943 | 40190 ft | 423 kts | 219° |
| 2026-05-05 13:49 | -28.78984 | -52.36791 | 40179 ft | 422 kts | 219° |
| 2026-05-05 13:50 | -28.83782 | -52.40641 | 40182 ft | 423 kts | 219° |
| 2026-05-05 13:50 | -28.88586 | -52.44500 | 40184 ft | 423 kts | 219° |
| 2026-05-05 13:51 | -28.93384 | -52.48358 | 40185 ft | 423 kts | 219° |
| 2026-05-05 13:51 | -28.98182 | -52.52222 | 40180 ft | 423 kts | 219° |
| 2026-05-05 13:52 | -29.02978 | -52.56088 | 40183 ft | 423 kts | 219° |
| 2026-05-05 13:52 | -29.07777 | -52.59960 | 40178 ft | 423 kts | 219° |
| 2026-05-05 13:53 | -29.12573 | -52.63835 | 40178 ft | 423 kts | 219° |
| 2026-05-05 13:53 | -29.17368 | -52.67713 | 40174 ft | 423 kts | 219° |
| 2026-05-05 13:54 | -29.22159 | -52.71594 | 40169 ft | 423 kts | 219° |
| 2026-05-05 13:54 | -29.26946 | -52.75475 | 40165 ft | 423 kts | 219° |
| 2026-05-05 13:55 | -29.31737 | -52.79364 | 40159 ft | 423 kts | 219° |
| 2026-05-05 13:55 | -29.36525 | -52.83255 | 40156 ft | 423 kts | 219° |
| 2026-05-05 13:56 | -29.41316 | -52.87153 | 40159 ft | 423 kts | 220° |
| 2026-05-05 13:56 | -29.46114 | -52.91062 | 40153 ft | 424 kts | 220° |
| 2026-05-05 13:57 | -29.50910 | -52.94973 | 40147 ft | 424 kts | 220° |
| 2026-05-05 13:57 | -29.55706 | -52.98888 | 40146 ft | 423 kts | 219° |
| 2026-05-05 13:58 | -29.60494 | -53.02804 | 40145 ft | 423 kts | 220° |
| 2026-05-05 13:58 | -29.65282 | -53.06722 | 40141 ft | 424 kts | 220° |
| 2026-05-05 13:59 | -29.72481 | -53.12624 | 40141 ft | 425 kts | 220° |
| 2026-05-05 14:00 | -29.79666 | -53.18524 | 40136 ft | 424 kts | 220° |
| 2026-05-05 14:00 | -29.84451 | -53.22458 | 40137 ft | 423 kts | 220° |
| 2026-05-05 14:01 | -29.89210 | -53.26377 | 40138 ft | 421 kts | 220° |
| 2026-05-05 14:01 | -29.93977 | -53.30308 | 40134 ft | 423 kts | 220° |
| 2026-05-05 14:02 | -29.98750 | -53.34246 | 40132 ft | 423 kts | 220° |
| 2026-05-05 14:02 | -30.03523 | -53.38191 | 40131 ft | 423 kts | 220° |
| 2026-05-05 14:03 | -30.08292 | -53.42136 | 40134 ft | 423 kts | 220° |
| 2026-05-05 14:03 | -30.13062 | -53.46089 | 40140 ft | 423 kts | 220° |
| 2026-05-05 14:04 | -30.17843 | -53.50053 | 40136 ft | 424 kts | 220° |
| 2026-05-05 14:04 | -30.22627 | -53.54026 | 40139 ft | 425 kts | 220° |
| 2026-05-05 14:05 | -30.27415 | -53.58007 | 40137 ft | 425 kts | 220° |
| 2026-05-05 14:05 | -30.32206 | -53.61996 | 40135 ft | 425 kts | 220° |
| 2026-05-05 14:06 | -30.37034 | -53.65916 | 40131 ft | 426 kts | 219° |
| 2026-05-05 14:06 | -30.41904 | -53.69797 | 40138 ft | 426 kts | 219° |
| 2026-05-05 14:07 | -30.46785 | -53.73666 | 40138 ft | 426 kts | 219° |
| 2026-05-05 14:07 | -30.51657 | -53.77544 | 40135 ft | 426 kts | 219° |
| 2026-05-05 14:08 | -30.56535 | -53.81426 | 40120 ft | 426 kts | 219° |
| 2026-05-05 14:08 | -30.61406 | -53.85309 | 40127 ft | 425 kts | 219° |
| 2026-05-05 14:09 | -30.66274 | -53.89195 | 40123 ft | 425 kts | 219° |
| 2026-05-05 14:09 | -30.71141 | -53.93084 | 40125 ft | 426 kts | 219° |
| 2026-05-05 14:10 | -30.76008 | -53.96978 | 40128 ft | 426 kts | 219° |
| 2026-05-05 14:10 | -30.80880 | -54.00881 | 40130 ft | 426 kts | 219° |
| 2026-05-05 14:11 | -30.85753 | -54.04791 | 40131 ft | 427 kts | 219° |
| 2026-05-05 14:11 | -30.90630 | -54.08707 | 40125 ft | 427 kts | 219° |
| 2026-05-05 14:12 | -30.95511 | -54.12633 | 40119 ft | 428 kts | 219° |
| 2026-05-05 14:12 | -31.00174 | -54.16854 | 40122 ft | 423 kts | 227° |
| 2026-05-05 14:13 | -31.04494 | -54.21489 | 40118 ft | 423 kts | 226° |
| 2026-05-05 14:13 | -31.08806 | -54.26132 | 40117 ft | 422 kts | 227° |
| 2026-05-05 14:14 | -31.13116 | -54.30775 | 40108 ft | 423 kts | 227° |
| 2026-05-05 14:14 | -31.17430 | -54.35429 | 40102 ft | 423 kts | 227° |
| 2026-05-05 14:15 | -31.21733 | -54.40077 | 40105 ft | 421 kts | 227° |
| 2026-05-05 14:15 | -31.26018 | -54.44712 | 40106 ft | 420 kts | 227° |
| 2026-05-05 14:16 | -31.30302 | -54.49353 | 40107 ft | 422 kts | 227° |
| 2026-05-05 14:16 | -31.34601 | -54.54014 | 40109 ft | 422 kts | 227° |
| 2026-05-05 14:17 | -31.38898 | -54.58680 | 40104 ft | 422 kts | 227° |
| 2026-05-05 14:17 | -31.43194 | -54.63351 | 40105 ft | 422 kts | 227° |
| 2026-05-05 14:18 | -31.47501 | -54.68004 | 40102 ft | 422 kts | 227° |
| 2026-05-05 14:18 | -31.51826 | -54.72639 | 40098 ft | 422 kts | 227° |
| 2026-05-05 14:19 | -31.56133 | -54.77288 | 40106 ft | 422 kts | 227° |
| 2026-05-05 14:19 | -31.60445 | -54.81934 | 40102 ft | 422 kts | 227° |
| 2026-05-05 14:20 | -31.64753 | -54.86589 | 40100 ft | 422 kts | 227° |
| 2026-05-05 14:20 | -31.69058 | -54.91245 | 40098 ft | 422 kts | 227° |
| 2026-05-05 14:21 | -31.73367 | -54.95911 | 40095 ft | 422 kts | 227° |
| 2026-05-05 14:21 | -31.77673 | -55.00580 | 40091 ft | 422 kts | 227° |
| 2026-05-05 14:22 | -31.81972 | -55.05248 | 40094 ft | 422 kts | 227° |
| 2026-05-05 14:22 | -31.86271 | -55.09921 | 40090 ft | 421 kts | 227° |
| 2026-05-05 14:23 | -31.90566 | -55.14598 | 40091 ft | 422 kts | 227° |
| 2026-05-05 14:23 | -31.94859 | -55.19277 | 40082 ft | 421 kts | 227° |
| 2026-05-05 14:24 | -31.99151 | -55.23962 | 40082 ft | 421 kts | 227° |
| 2026-05-05 14:24 | -32.03439 | -55.28649 | 40083 ft | 421 kts | 228° |
| 2026-05-05 14:25 | -32.07724 | -55.33339 | 40077 ft | 422 kts | 228° |
| 2026-05-05 14:25 | -32.12018 | -55.38045 | 40076 ft | 423 kts | 228° |
| 2026-05-05 14:26 | -32.16310 | -55.42755 | 40076 ft | 423 kts | 228° |
| 2026-05-05 14:26 | -32.20608 | -55.47479 | 40075 ft | 423 kts | 228° |
| 2026-05-05 14:27 | -32.24905 | -55.52206 | 40071 ft | 424 kts | 228° |
| 2026-05-05 14:27 | -32.29204 | -55.56943 | 40075 ft | 423 kts | 228° |
| 2026-05-05 14:28 | -32.33495 | -55.61678 | 40074 ft | 423 kts | 228° |
| 2026-05-05 14:28 | -32.37782 | -55.66415 | 40071 ft | 423 kts | 228° |
| 2026-05-05 14:29 | -32.42072 | -55.71161 | 40075 ft | 423 kts | 228° |
| 2026-05-05 14:29 | -32.46354 | -55.75905 | 40065 ft | 423 kts | 228° |
| 2026-05-05 14:30 | -32.50637 | -55.80657 | 40068 ft | 422 kts | 228° |
| 2026-05-05 14:30 | -32.54911 | -55.85405 | 40059 ft | 422 kts | 228° |
| 2026-05-05 14:31 | -32.59176 | -55.90150 | 40061 ft | 421 kts | 228° |
| 2026-05-05 14:31 | -32.63434 | -55.94893 | 40064 ft | 420 kts | 229° |
| 2026-05-05 14:32 | -32.67685 | -55.99635 | 40067 ft | 420 kts | 229° |
| 2026-05-05 14:32 | -32.71936 | -56.04385 | 40065 ft | 421 kts | 229° |
| 2026-05-05 14:33 | -32.76186 | -56.09138 | 40066 ft | 421 kts | 229° |
| 2026-05-05 14:33 | -32.80437 | -56.13899 | 40063 ft | 421 kts | 229° |
| 2026-05-05 14:34 | -32.84685 | -56.18666 | 40064 ft | 421 kts | 229° |
| 2026-05-05 14:34 | -32.88934 | -56.23437 | 40065 ft | 421 kts | 229° |
| 2026-05-05 14:35 | -32.93178 | -56.28211 | 40064 ft | 421 kts | 229° |
| 2026-05-05 14:35 | -32.97422 | -56.32991 | 40060 ft | 421 kts | 229° |
| 2026-05-05 14:36 | -33.01658 | -56.37783 | 40063 ft | 421 kts | 229° |
| 2026-05-05 14:36 | -33.05891 | -56.42590 | 40058 ft | 422 kts | 229° |
| 2026-05-05 14:37 | -33.10127 | -56.47399 | 40052 ft | 421 kts | 229° |
| 2026-05-05 14:37 | -33.14358 | -56.52214 | 40056 ft | 421 kts | 229° |
| 2026-05-05 14:38 | -33.18584 | -56.57027 | 40056 ft | 421 kts | 229° |
| 2026-05-05 14:38 | -33.22812 | -56.61844 | 40061 ft | 421 kts | 229° |
| 2026-05-05 14:39 | -33.27038 | -56.66666 | 40055 ft | 421 kts | 229° |
| 2026-05-05 14:39 | -33.31265 | -56.71495 | 40058 ft | 421 kts | 229° |
| 2026-05-05 14:40 | -33.35491 | -56.76330 | 40053 ft | 422 kts | 229° |
| 2026-05-05 14:40 | -33.39718 | -56.81174 | 40049 ft | 422 kts | 229° |
| 2026-05-05 14:41 | -33.43951 | -56.86031 | 40050 ft | 423 kts | 229° |
| 2026-05-05 14:41 | -33.48187 | -56.90899 | 40054 ft | 423 kts | 229° |
| 2026-05-05 14:42 | -33.52425 | -56.95776 | 40033 ft | 424 kts | 229° |
| 2026-05-05 14:42 | -33.56669 | -57.00665 | 40043 ft | 424 kts | 229° |
| 2026-05-05 14:43 | -33.60916 | -57.05567 | 40036 ft | 425 kts | 229° |
| 2026-05-05 14:43 | -33.65163 | -57.10475 | 40039 ft | 424 kts | 229° |
| 2026-05-05 14:44 | -33.67267 | -57.12906 | 39552 ft | 420 kts | 230° |
| 2026-05-05 14:44 | -33.69361 | -57.15332 | 39065 ft | 417 kts | 230° |
| 2026-05-05 14:44 | -33.71431 | -57.17730 | 38582 ft | 412 kts | 230° |
| 2026-05-05 14:44 | -33.73479 | -57.20103 | 38017 ft | 408 kts | 230° |
| 2026-05-05 14:45 | -33.75508 | -57.22458 | 37446 ft | 405 kts | 230° |
| 2026-05-05 14:45 | -33.77520 | -57.24794 | 36913 ft | 401 kts | 230° |
| 2026-05-05 14:45 | -33.79500 | -57.27121 | 36371 ft | 395 kts | 233° |
| 2026-05-05 14:45 | -33.81088 | -57.29742 | 35843 ft | 385 kts | 244° |
| 2026-05-05 14:46 | -33.82370 | -57.32540 | 35298 ft | 381 kts | 246° |
| 2026-05-05 14:46 | -33.83586 | -57.35344 | 34803 ft | 378 kts | 245° |
| 2026-05-05 14:46 | -33.84916 | -57.38057 | 34315 ft | 377 kts | 242° |
| 2026-05-05 14:46 | -33.86354 | -57.40677 | 33793 ft | 375 kts | 241° |
| 2026-05-05 14:47 | -33.87747 | -57.43299 | 33212 ft | 371 kts | 243° |
| 2026-05-05 14:47 | -33.89075 | -57.45940 | 32646 ft | 369 kts | 243° |
| 2026-05-05 14:47 | -33.90401 | -57.48564 | 32091 ft | 366 kts | 243° |
| 2026-05-05 14:47 | -33.91741 | -57.51154 | 31558 ft | 364 kts | 242° |
| 2026-05-05 14:48 | -33.93075 | -57.53731 | 31011 ft | 363 kts | 243° |
| 2026-05-05 14:48 | -33.94392 | -57.56301 | 30483 ft | 360 kts | 243° |
| 2026-05-05 14:48 | -33.95701 | -57.58865 | 29930 ft | 359 kts | 243° |
| 2026-05-05 14:48 | -33.97004 | -57.61407 | 29346 ft | 356 kts | 243° |
| 2026-05-05 14:49 | -33.98298 | -57.63930 | 28783 ft | 353 kts | 243° |
| 2026-05-05 14:49 | -33.99581 | -57.66437 | 28220 ft | 351 kts | 243° |
| 2026-05-05 14:49 | -34.00838 | -57.68893 | 28106 ft | 338 kts | 243° |
| 2026-05-05 14:49 | -34.02059 | -57.71282 | 27609 ft | 336 kts | 243° |
| 2026-05-05 14:50 | -34.03282 | -57.73687 | 26968 ft | 338 kts | 243° |
| 2026-05-05 14:50 | -34.04513 | -57.76101 | 26358 ft | 339 kts | 243° |
| 2026-05-05 14:50 | -34.05750 | -57.78522 | 25751 ft | 340 kts | 243° |
| 2026-05-05 14:50 | -34.06986 | -57.80946 | 25165 ft | 340 kts | 243° |
| 2026-05-05 14:51 | -34.08219 | -57.83370 | 24598 ft | 340 kts | 243° |
| 2026-05-05 14:51 | -34.09453 | -57.85795 | 24034 ft | 340 kts | 243° |
| 2026-05-05 14:51 | -34.10685 | -57.88216 | 23449 ft | 339 kts | 243° |
| 2026-05-05 14:51 | -34.11914 | -57.90635 | 22776 ft | 339 kts | 243° |
| 2026-05-05 14:52 | -34.13141 | -57.93050 | 22157 ft | 338 kts | 243° |
| 2026-05-05 14:52 | -34.14364 | -57.95460 | 21519 ft | 337 kts | 243° |
| 2026-05-05 14:52 | -34.15580 | -57.97859 | 20895 ft | 335 kts | 243° |
| 2026-05-05 14:52 | -34.16793 | -58.00251 | 20289 ft | 334 kts | 243° |
| 2026-05-05 14:53 | -34.18000 | -58.02633 | 19888 ft | 328 kts | 243° |
| 2026-05-05 14:53 | -34.19157 | -58.04910 | 19888 ft | 309 kts | 243° |
| 2026-05-05 14:53 | -34.20259 | -58.07088 | 19494 ft | 304 kts | 243° |
| 2026-05-05 14:53 | -34.21354 | -58.09267 | 18988 ft | 304 kts | 243° |
| 2026-05-05 14:54 | -34.22449 | -58.11435 | 18520 ft | 302 kts | 243° |
| 2026-05-05 14:54 | -34.23537 | -58.13587 | 17997 ft | 300 kts | 243° |
| 2026-05-05 14:54 | -34.24620 | -58.15732 | 17500 ft | 298 kts | 243° |
| 2026-05-05 14:54 | -34.25685 | -58.17842 | 17143 ft | 292 kts | 243° |
| 2026-05-05 14:55 | -34.26741 | -58.19942 | 16798 ft | 295 kts | 243° |
| 2026-05-05 14:55 | -34.27809 | -58.22065 | 16448 ft | 297 kts | 243° |
| 2026-05-05 14:55 | -34.28876 | -58.24181 | 16097 ft | 292 kts | 243° |
| 2026-05-05 14:55 | -34.29925 | -58.26262 | 15754 ft | 291 kts | 243° |
| 2026-05-05 14:56 | -34.30978 | -58.28362 | 15410 ft | 293 kts | 243° |
| 2026-05-05 14:56 | -34.32036 | -58.30468 | 15066 ft | 292 kts | 243° |
| 2026-05-05 14:56 | -34.33081 | -58.32543 | 14720 ft | 287 kts | 243° |
| 2026-05-05 14:56 | -34.34119 | -58.34615 | 14382 ft | 290 kts | 243° |
| 2026-05-05 14:57 | -34.35165 | -58.36703 | 14039 ft | 291 kts | 243° |
| 2026-05-05 14:57 | -34.36205 | -58.38773 | 13686 ft | 286 kts | 243° |
| 2026-05-05 14:57 | -34.37228 | -58.40814 | 13345 ft | 284 kts | 243° |
| 2026-05-05 14:57 | -34.38255 | -58.42868 | 13007 ft | 286 kts | 243° |
| 2026-05-05 14:58 | -34.39277 | -58.44911 | 12688 ft | 281 kts | 243° |
| 2026-05-05 14:58 | -34.40291 | -58.46936 | 12362 ft | 285 kts | 243° |
| 2026-05-05 14:58 | -34.41310 | -58.48976 | 12021 ft | 280 kts | 243° |
| 2026-05-05 14:58 | -34.42310 | -58.50973 | 11702 ft | 278 kts | 243° |
| 2026-05-05 14:59 | -34.43310 | -58.52981 | 11380 ft | 280 kts | 243° |
| 2026-05-05 14:59 | -34.44313 | -58.54990 | 11061 ft | 278 kts | 243° |
| 2026-05-05 14:59 | -34.45304 | -58.56972 | 10730 ft | 274 kts | 243° |
| 2026-05-05 14:59 | -34.46289 | -58.58952 | 10435 ft | 276 kts | 243° |
| 2026-05-05 15:00 | -34.47273 | -58.60928 | 10286 ft | 274 kts | 243° |
| 2026-05-05 15:00 | -34.47927 | -58.62239 | 10086 ft | 271 kts | 243° |
| 2026-05-05 15:00 | -34.49196 | -58.64784 | 9682 ft | 260 kts | 243° |
| 2026-05-05 15:00 | -34.50120 | -58.66642 | 9398 ft | 258 kts | 243° |
| 2026-05-05 15:01 | -34.51049 | -58.68518 | 9097 ft | 260 kts | 243° |
| 2026-05-05 15:01 | -34.51982 | -58.70395 | 8836 ft | 261 kts | 243° |
| 2026-05-05 15:01 | -34.52906 | -58.72250 | 8554 ft | 254 kts | 243° |
| 2026-05-05 15:01 | -34.53820 | -58.74093 | 8284 ft | 257 kts | 244° |
| 2026-05-05 15:02 | -34.54738 | -58.75950 | 8004 ft | 256 kts | 244° |
| 2026-05-05 15:02 | -34.55646 | -58.77778 | 7727 ft | 253 kts | 244° |
| 2026-05-05 15:02 | -34.56561 | -58.79623 | 7500 ft | 256 kts | 244° |
| 2026-05-05 15:02 | -34.57469 | -58.81446 | 7483 ft | 253 kts | 244° |
| 2026-05-05 15:03 | -34.58394 | -58.83312 | 7099 ft | 265 kts | 244° |
| 2026-05-05 15:03 | -34.59333 | -58.85206 | 6728 ft | 259 kts | 244° |
| 2026-05-05 15:03 | -34.60245 | -58.87035 | 6468 ft | 249 kts | 244° |
| 2026-05-05 15:03 | -34.61127 | -58.88785 | 6193 ft | 240 kts | 244° |
| 2026-05-05 15:04 | -34.62268 | -58.90314 | 5584 ft | 256 kts | 216° |
| 2026-05-05 15:04 | -34.63929 | -58.91089 | 5233 ft | 260 kts | 192° |
| 2026-05-05 15:04 | -34.65654 | -58.91046 | 4980 ft | 259 kts | 179° |
| 2026-05-05 15:04 | -34.67439 | -58.90819 | 4709 ft | 257 kts | 178° |
| 2026-05-05 15:05 | -34.70914 | -58.90367 | 4185 ft | 246 kts | 178° |
| 2026-05-05 15:05 | -34.72598 | -58.90167 | 3934 ft | 241 kts | 178° |
| 2026-05-05 15:05 | -34.74249 | -58.89924 | 3791 ft | 240 kts | 169° |
| 2026-05-05 15:06 | -34.75684 | -58.88874 | 3671 ft | 246 kts | 134° |
| 2026-05-05 15:06 | -34.76464 | -58.87079 | 3498 ft | 237 kts | 103° |
| 2026-05-05 15:06 | -34.76795 | -58.85119 | 3333 ft | 240 kts | 100° |
| 2026-05-05 15:06 | -34.77097 | -58.83137 | 3117 ft | 237 kts | 100° |
| 2026-05-05 15:07 | -34.77390 | -58.81173 | 2959 ft | 235 kts | 98° |
| 2026-05-05 15:07 | -34.77634 | -58.79245 | 2842 ft | 225 kts | 100° |
| 2026-05-05 15:07 | -34.77949 | -58.77456 | 2811 ft | 211 kts | 102° |
| 2026-05-05 15:07 | -34.78255 | -58.75739 | 2812 ft | 208 kts | 102° |
| 2026-05-05 15:08 | -34.78559 | -58.74045 | 2801 ft | 199 kts | 102° |
| 2026-05-05 15:08 | -34.78844 | -58.72456 | 2779 ft | 189 kts | 102° |
| 2026-05-05 15:08 | -34.79126 | -58.70879 | 2599 ft | 192 kts | 102° |
| 2026-05-05 15:08 | -34.79403 | -58.69337 | 2363 ft | 181 kts | 101° |
| 2026-05-05 15:09 | -34.79659 | -58.67911 | 2112 ft | 165 kts | 101° |
| 2026-05-05 15:09 | -34.79895 | -58.66587 | 1873 ft | 158 kts | 101° |
| 2026-05-05 15:09 | -34.80129 | -58.65287 | 1680 ft | 157 kts | 101° |
| 2026-05-05 15:09 | -34.80358 | -58.64011 | 1471 ft | 154 kts | 101° |
| 2026-05-05 15:10 | -34.80583 | -58.62751 | 1275 ft | 152 kts | 101° |
| 2026-05-05 15:10 | -34.80808 | -58.61489 | 1079 ft | 153 kts | 101° |
| 2026-05-05 15:10 | -34.81032 | -58.60236 | 888 ft | 151 kts | 101° |
| 2026-05-05 15:10 | -34.81249 | -58.59001 | 689 ft | 148 kts | 101° |
| 2026-05-05 15:11 | -34.81465 | -58.57783 | 510 ft | 147 kts | 101° |
| 2026-05-05 15:11 | -34.81682 | -58.56577 | 320 ft | 144 kts | 101° |
| 2026-05-05 15:11 | -34.81892 | -58.55383 | 117 ft | 145 kts | 103° |
| 2026-05-05 15:11 | -34.82095 | -58.54269 | 95 ft | 119 kts | 100° |
| 2026-05-05 15:12 | -34.82235 | -58.53491 | 90 ft | 67 kts | 102° |
| 2026-05-05 15:12 | -34.82295 | -58.53169 | 90 ft | 19 kts | 102° |
| 2026-05-05 15:12 | -34.82303 | -58.53122 | 89 ft | 0 kts | 102° |
| 2026-05-05 15:12 | -34.82312 | -58.53072 | 90 ft | 11 kts | 102° |
| 2026-05-05 15:13 | -34.82333 | -58.52949 | 90 ft | 17 kts | 97° |
| 2026-05-05 15:13 | -34.82300 | -58.52890 | 90 ft | 7 kts | 17° |
| 2026-05-05 15:13 | -34.82207 | -58.52915 | 91 ft | 18 kts | 343° |
| 2026-05-05 15:13 | -34.82088 | -58.52959 | 88 ft | 18 kts | 343° |
| 2026-05-05 15:14 | -34.82021 | -58.53045 | 86 ft | 14 kts | 283° |
| 2026-05-05 15:14 | -34.81995 | -58.53176 | 84 ft | 17 kts | 283° |
| 2026-05-05 15:14 | -34.81967 | -58.53321 | 83 ft | 18 kts | 283° |
| 2026-05-05 15:14 | -34.81937 | -58.53476 | 85 ft | 19 kts | 284° |
| 2026-05-05 15:15 | -34.81891 | -58.53626 | 84 ft | 18 kts | 316° |
| 2026-05-05 15:15 | -34.81784 | -58.53698 | 85 ft | 18 kts | 335° |
| 2026-05-05 15:15 | -34.81705 | -58.53802 | 82 ft | 17 kts | 283° |
| 2026-05-05 15:15 | -34.81731 | -58.53926 | 85 ft | 14 kts | 263° |
| 2026-05-05 15:16 | -34.81719 | -58.53964 | 85 ft | 1 kts | 316° |
| 2026-05-05 15:16 | -34.81710 | -58.53976 | 83 ft | 3 kts | 313° |
| 2026-05-05 15:16 | -34.81690 | -58.54002 | 84 ft | 5 kts | 314° |
| 2026-05-05 15:16 | -34.81665 | -58.54033 | 83 ft | 4 kts | 315° |
| 2026-05-05 15:17 | -34.81660 | -58.54039 | 86 ft | 1 kts | 315° |
| 2026-05-05 15:17 | -34.81658 | -58.54041 | 86 ft | 0 kts | 315° |
| 2026-05-05 15:33 | -34.81664 | -58.54035 | 86 ft | 0 kts | 316° |
| 2026-05-05 15:34 | -34.81660 | -58.54040 | 81 ft | 0 kts | 316° |
| 2026-05-05 15:34 | -34.81659 | -58.54041 | 81 ft | 0 kts | 316° |
| 2026-05-05 15:34 | -34.81659 | -58.54042 | 81 ft | 0 kts | 316° |
| 2026-05-05 15:35 | -34.81658 | -58.54041 | 81 ft | 0 kts | 316° |
| 2026-05-05 15:36 | -34.81659 | -58.54042 | 81 ft | 0 kts | 316° |
| 2026-05-05 15:36 | -34.81659 | -58.54041 | 81 ft | 0 kts | 316° |